• Join FlightAware (Why Join?)
  • Login
  • US Flag 
04:01AM EDT


 

Airport Tracker/Info


-or-


 

Live Flight TrackerFlight Track Log ✈ FDX1570 ✈ 29-Jun-2013 ✈ KMEM - KALB

Flight Track Log - Related Links

Times and Time Zones

All times are in EDT time to prevent confusion due to time zone crossing. See the FDX1570 flight status page for this flight to view local times or setup timezone preferences in your user account.

Time Position Orientation Groundspeed Altitude Reporting Facility
EDT Latitude Longitude Course Direction KTS MPH feet Rate Location/Type
04:41AM 35.0167 -89.9667 65° Northeast 161 185 1,400  Level KMEM
04:42AM 34.9833 -89.9667 180° South 217 250 2,600 2,580 Climbing KMEM
04:43AM 34.9667 -89.8833 104° East 275 316 5,500 3,120 Climbing KMEM
04:44AM 35.0000 -89.8000 64° Northeast 301 346 8,800 2,880 Climbing KMEM
04:45AM 35.0453 -89.6925 63° Northeast 328 377 11,900 2,220 Climbing Memphis Center
04:46AM 35.0883 -89.5678 67° East 364 419 13,800 2,340 Climbing Memphis Center
04:47AM 35.2646 -89.0668 65° Northeast  Level FlightAware Approximate
04:47AM 35.1353 -89.4378 66° East 407 468 16,600  Level Memphis Center
04:48AM 35.1864 -89.2900 67° East 421 484 19,200 2,400 Climbing Memphis Center
04:49AM 35.2372 -89.1494 66° East 439 505 21,500 2,100 Climbing Memphis Center
04:50AM 35.3025 -89.0164 59° Northeast 450 518 23,400 1,680 Climbing Memphis Center
04:56AM 35.8010 -88.1780 59° Northeast 516 594 33,700 1,680 Climbing FlightAware
04:57AM 35.8650 -88.0700 54° Northeast 513 590 35,000 1,680 Climbing FlightAware
04:58AM 35.9180 -87.9830 53° Northeast 511 588 36,000 1,320 Climbing FlightAware
04:58AM 35.9770 -87.8820 54° Northeast 515 593 36,800 1,320 Climbing FlightAware
04:59AM 36.0380 -87.7800 53° Northeast 509 586 37,900 1,020 Climbing FlightAware
05:00AM 36.0940 -87.6860 54° Northeast 516 594 38,300 780 Climbing FlightAware
05:00AM 36.1550 -87.5820 54° Northeast 507 583 39,000 480 Climbing FlightAware
05:01AM 36.2140 -87.4810 54° Northeast 509 586 39,000  Level FlightAware
05:02AM 36.2640 -87.3960 54° Northeast 512 589 39,000  Level FlightAware
05:02AM 36.3280 -87.2860 54° Northeast 515 593 39,000  Level FlightAware
05:03AM 36.3890 -87.1810 54° Northeast 515 593 39,000  Level FlightAware
05:04AM 36.4433 -87.0896 54° Northeast 515 593 39,000  Level FlightAware ADS-B
05:04AM 36.5000 -86.9910 54° Northeast 513 590 39,000  Level FlightAware
05:05AM 36.5660 -86.8770 54° Northeast 511 588 39,000  Level FlightAware
05:06AM 36.6250 -86.7740 54° Northeast 509 586 39,000  Level FlightAware
05:06AM 36.6622 -86.7097 54° Northeast 511 588 39,000  Level FlightAware ADS-B
05:07AM 36.7042 -86.6353 55° Northeast 512 589 39,000  Level FlightAware ADS-B
05:08AM 36.7657 -86.5295 54° Northeast 514 592 39,000  Level FlightAware ADS-B
05:09AM 36.8595 -86.3650 54° Northeast 514 592 39,000  Level FlightAware ADS-B
05:10AM 36.9523 -86.2000 55° Northeast 515 593 39,000  Level FlightAware ADS-B
05:11AM 37.0017 -86.1124 55° Northeast 516 594 39,000  Level FlightAware ADS-B
05:11AM 37.0438 -86.0392 54° Northeast 516 594 39,000  Level FlightAware ADS-B
05:12AM 37.0867 -85.9609 56° Northeast 518 596 39,000  Level FlightAware ADS-B
05:12AM 37.1291 -85.8871 54° Northeast 518 596 39,000  Level FlightAware ADS-B
05:13AM 37.1712 -85.8107 55° Northeast 519 597 39,000  Level FlightAware ADS-B
05:13AM 37.2131 -85.7368 55° Northeast 520 598 39,000  Level FlightAware ADS-B
05:14AM 37.2545 -85.6625 55° Northeast 520 598 39,000  Level FlightAware ADS-B
05:14AM 37.2998 -85.5806 55° Northeast 522 601 39,000  Level FlightAware ADS-B
05:15AM 37.3417 -85.5037 56° Northeast 523 602 39,000  Level FlightAware ADS-B
05:15AM 37.3831 -85.4287 55° Northeast 523 602 39,000  Level FlightAware ADS-B
05:16AM 37.4247 -85.3537 55° Northeast 524 603 39,000  Level FlightAware ADS-B
05:16AM 37.4662 -85.2784 55° Northeast 525 604 39,000  Level FlightAware ADS-B
05:17AM 37.5076 -85.2031 55° Northeast 524 603 39,000  Level FlightAware ADS-B
05:17AM 37.5492 -85.1279 55° Northeast 524 603 39,000  Level FlightAware ADS-B
05:18AM 37.5908 -85.0525 55° Northeast 524 603 39,000  Level FlightAware ADS-B
05:18AM 37.6328 -84.9746 56° Northeast 524 603 39,000  Level FlightAware ADS-B
05:19AM 37.6745 -84.8992 55° Northeast 523 602 39,000  Level FlightAware ADS-B
05:19AM 37.7179 -84.8185 56° Northeast 525 604 39,000  Level FlightAware ADS-B
05:20AM 37.7600 -84.7399 56° Northeast 525 604 39,000  Level FlightAware ADS-B
05:20AM 37.8029 -84.6617 55° Northeast 526 605 39,000  Level FlightAware ADS-B
05:21AM 37.8818 -84.5142 56° Northeast 526 605 39,000  Level FlightAware ADS-B
05:22AM 37.9350 -84.4151 56° Northeast 524 603 39,000  Level FlightAware ADS-B
05:22AM 37.9830 -84.3260 56° Northeast 523 602 39,000  Level FlightAware
05:23AM 38.0310 -84.2370 56° Northeast 523 602 39,000  Level FlightAware
05:24AM 38.0840 -84.1370 56° Northeast 523 602 39,000  Level FlightAware
05:25AM 38.1250 -84.0590 56° Northeast 523 602 39,000  Level FlightAware
05:25AM 38.1800 -83.9550 56° Northeast 523 602 39,000  Level FlightAware
05:26AM 38.2240 -83.8730 56° Northeast 523 602 39,000  Level FlightAware
05:27AM 38.2790 -83.7680 56° Northeast 523 602 39,000  Level FlightAware
05:27AM 38.3770 -83.5790 56° Northeast 529 609 39,000  Level FlightAware
05:28AM 38.4550 -83.4280 57° Northeast 535 616 39,000  Level FlightAware
05:29AM 38.5190 -83.3040 57° Northeast 537 618 39,000  Level FlightAware
05:29AM 38.5450 -83.2570 55° Northeast 537 618 39,000  Level FlightAware
05:31AM 38.6561 -83.0358 55° Northeast 531 611 39,000  Level Indianapolis Center
05:32AM 38.7364 -82.8772 57° Northeast 528 608 39,000  Level Indianapolis Center
05:33AM 38.8175 -82.7197 57° Northeast 526 605 39,000  Level Indianapolis Center
05:34AM 38.8975 -82.5600 57° Northeast 529 609 39,000  Level Indianapolis Center
05:35AM 38.9772 -82.4033 57° Northeast 524 603 39,000  Level Indianapolis Center
05:36AM 39.0561 -82.2453 57° Northeast 520 598 39,000  Level Indianapolis Center
05:37AM 39.1353 -82.0872 57° Northeast 520 598 39,000  Level Indianapolis Center
05:43AM 39.6070 -81.1280 57° Northeast 525 604 39,000  Level FlightAware
05:44AM 39.6610 -81.0150 58° Northeast 525 604 39,000  Level FlightAware
05:44AM 39.7160 -80.9000 58° Northeast 523 602 39,000  Level FlightAware
05:45AM 39.7710 -80.7830 59° Northeast 523 602 39,000  Level FlightAware
05:46AM 39.8270 -80.6680 58° Northeast 522 601 39,000  Level FlightAware
05:46AM 39.8780 -80.5590 59° Northeast 522 601 39,000  Level FlightAware
05:47AM 39.9280 -80.4540 58° Northeast 522 601 39,000  Level FlightAware
05:48AM 39.9840 -80.3370 58° Northeast 521 600 39,000  Level FlightAware
05:48AM 40.0320 -80.2320 59° Northeast 521 600 39,000  Level FlightAware
05:49AM 40.0750 -80.1410 58° Northeast 520 598 39,000  Level FlightAware
05:50AM 40.1170 -80.0500 59° Northeast 519 597 39,000  Level FlightAware
05:51AM 40.1890 -79.8950 59° Northeast 517 595 39,000  Level FlightAware
05:51AM 40.2460 -79.7750 58° Northeast 516 594 39,000  Level FlightAware
05:52AM 40.2910 -79.6760 59° Northeast 514 592 39,000  Level FlightAware
05:53AM 40.3470 -79.5560 58° Northeast 515 593 39,000  Level FlightAware
05:53AM 40.3940 -79.4510 60° Northeast 515 593 39,000  Level FlightAware
05:54AM 40.4600 -79.3070 59° Northeast 514 592 39,000  Level FlightAware
05:55AM 40.5170 -79.1810 59° Northeast 513 590 39,000  Level FlightAware
05:56AM 40.6170 -78.9580 59° Northeast 514 592 39,000  Level FlightAware
05:59AM 40.8000 -78.5520 59° Northeast 516 594 39,000  Level FlightAware
06:00AM 40.8740 -78.3830 60° Northeast 518 596 39,000  Level FlightAware
06:01AM 40.9200 -78.2790 60° Northeast 520 598 39,000  Level FlightAware
06:01AM 40.9770 -78.1490 60° Northeast 520 598 39,000  Level FlightAware
06:02AM 41.0250 -78.0390 60° Northeast 520 598 39,000  Level FlightAware
06:03AM 41.0681 -77.9401 60° Northeast 520 598 39,000  Level FlightAware ADS-B
06:03AM 41.1059 -77.8544 60° Northeast 521 600 39,000  Level FlightAware ADS-B
06:04AM 41.1420 -77.7713 60° Northeast 521 600 39,000  Level FlightAware ADS-B
06:04AM 41.1878 -77.6630 61° Northeast 523 602 39,000 -120 Level FlightAware ADS-B
06:05AM 41.2245 -77.5793 60° Northeast 523 602 38,900 -660 Descending FlightAware ADS-B
06:05AM 41.2841 -77.4596 56° Northeast 536 617 38,200 -1,020 Descending FlightAware ADS-B
06:06AM 41.3121 -77.4134 51° Northeast 539 620 37,900 -1,020 Descending FlightAware ADS-B
06:06AM 41.3692 -77.3292 48° Northeast 539 620 37,300 -1,020 Descending FlightAware ADS-B
06:07AM 41.4195 -77.2528 49° Northeast 533 613 36,800 -1,020 Descending FlightAware ADS-B
06:07AM 41.4711 -77.1769 48° Northeast 533 613 36,300 -960 Descending FlightAware ADS-B
06:08AM 41.5240 -77.0978 48° Northeast 538 619 35,800 -1,020 Descending FlightAware ADS-B
06:08AM 41.5741 -77.0234 48° Northeast 543 625 35,300 -1,020 Descending FlightAware ADS-B
06:09AM 41.6263 -76.9451 48° Northeast 554 638 34,800 -1,680 Descending FlightAware ADS-B
06:10AM 41.7034 -76.8275 49° Northeast 555 639 33,200 -2,520 Descending FlightAware ADS-B
06:11AM 41.8196 -76.6521 48° Northeast 536 617 30,000 -2,940 Descending FlightAware ADS-B
06:12AM 41.9190 -76.5020 48° Northeast 514 592 26,400 -3,060 Descending FlightAware
06:13AM 41.9890 -76.3960 48° Northeast 510 587 24,300 -1,800 Descending FlightAware
06:13AM 42.0430 -76.3120 49° Northeast 510 587 24,000 -240 Descending FlightAware
06:14AM 42.1280 -76.1820 49° Northeast 514 592 24,000  Level FlightAware
06:15AM 42.2003 -76.0164 49° Northeast 510 587 24,000  Level Boston Center
06:16AM 42.2617 -75.8433 64° Northeast 505 581 24,000  Level Boston Center
06:17AM 42.3236 -75.6583 66° East 499 574 24,000  Level Boston Center
06:18AM 42.3822 -75.4928 64° Northeast 494 568 24,000 -60 Level Boston Center
06:19AM 42.4411 -75.3183 65° Northeast 494 568 23,900 -1,380 Descending Boston Center
06:20AM 42.4869 -75.1458 70° East 494 568 21,300 -3,180 Descending Boston Center
06:21AM 42.5200 -74.9756 75° East 481 554 17,600 -3,480 Descending Boston Center
06:22AM 42.5528 -74.8106 75° East 464 534 14,400 -3,180 Descending Boston Center
06:23AM 42.5783 -74.6844 75° East 440 506 12,000 -1,920 Descending Boston Center
06:24AM 42.6083 -74.5306 75° East 424 488 11,000 -960 Descending Boston Center
06:30AM 42.8230 -73.9400 75° East 5,700 -960 Descending FlightAware
06:30AM 42.8320 -73.9270 47° Northeast 5,600 -660 Descending FlightAware
06:30AM 42.8610 -73.9070 27° Northeast 248 285 5,300 -780 Descending FlightAware
06:31AM 42.9210 -73.8800 18° North 205 236 4,500 -780 Descending FlightAware
06:32AM 42.9300 -73.8720 33° Northeast 204 235 4,400 -600 Descending FlightAware
06:32AM 42.9340 -73.8630 59° Northeast 201 231 4,300 -540 Descending FlightAware
06:32AM 42.9360 -73.8490 79° East 200 230 4,200 -1,200 Descending FlightAware
06:33AM 42.8778 -73.8114 79° East 186 214 2,600 -1,080 Descending Boston Center
06:34AM 42.8339 -73.8133 182° South 152 175 1,800 -780 Descending Boston Center
06:35AM 42.7986 -73.8097 176° South 115 132 1,100 -720 Descending Boston Center
06:36AM 42.7611 -73.8089 179° South 123 142 400 -720 Descending Boston Center